Time;durP1;ratioP1;P1;durP2;ratioP2;P2;SDS_P1;SDS_P2;PMS_P1;PMS_P2;Temp;Humidity;BMP_temperature;BMP_pressure;BME280_temperature;BME280_humidity;BME280_pressure;Samples;Min_cycle;Max_cycle;Signal;HPM_P1;HPM_P2
2021/12/08 00:00:45;;;;;;;2.97;2.10;;;;;;;;;;4934402;29;20204;-78
2021/12/08 00:03:11;;;;;;;2.03;1.90;;;;;;;;;;4936061;29;20236;-78
2021/12/08 00:05:37;;;;;;;2.97;2.17;;;;;;;;;;4933830;29;20183;-78
2021/12/08 00:08:03;;;;;;;3.40;2.13;;;;;;;;;;4940466;29;20200;-78
2021/12/08 00:13:07;;;;;;;2.03;1.83;;;;;;;;;;4940474;29;20205;-78
2021/12/08 00:15:32;;;;;;;2.77;2.00;;;;;;;;;;4934505;29;20206;-78
2021/12/08 00:17:58;;;;;;;3.15;2.10;;;;;;;;;;4937996;29;20219;-78
2021/12/08 00:20:23;;;;;;;2.30;1.80;;;;;;;;;;4936580;29;20182;-78
2021/12/08 00:22:48;;;;;;;2.50;2.30;;;;;;;;;;4941655;29;20210;-78
2021/12/08 00:25:14;;;;;;;2.40;2.00;;;;;;;;;;4936276;29;20204;-78
2021/12/08 00:27:39;;;;;;;1.93;1.73;;;;;;;;;;4936133;29;20321;-78
2021/12/08 00:30:04;;;;;;;3.00;2.00;;;;;;;;;;4935341;29;20182;-78
2021/12/08 00:32:32;;;;;;;2.17;1.97;;;;;;;;;;4932826;29;20193;-78
2021/12/08 00:34:59;;;;;;;2.77;1.77;;;;;;;;;;4934506;29;20197;-78
2021/12/08 00:37:26;;;;;;;2.33;2.13;;;;;;;;;;4934132;29;20174;-78
2021/12/08 00:39:52;;;;;;;2.23;1.90;;;;;;;;;;4934022;29;20177;-78
2021/12/08 00:42:18;;;;;;;2.50;2.00;;;;;;;;;;4935284;28;20210;-78
2021/12/08 00:44:45;;;;;;;2.07;1.87;;;;;;;;;;4935832;28;20197;-78
2021/12/08 00:47:11;;;;;;;2.43;2.20;;;;;;;;;;4936379;29;20181;-78
2021/12/08 00:49:39;;;;;;;3.07;1.90;;;;;;;;;;4934059;28;20176;-78
2021/12/08 00:52:05;;;;;;;2.67;2.03;;;;;;;;;;4933707;28;20173;-78
2021/12/08 00:54:30;;;;;;;3.03;2.27;;;;;;;;;;4938692;29;20181;-78
2021/12/08 00:56:57;;;;;;;4.00;2.20;;;;;;;;;;4937083;29;20220;-77
2021/12/08 00:59:22;;;;;;;3.00;2.10;;;;;;;;;;4934382;29;20182;-78
2021/12/08 01:01:47;;;;;;;1.87;1.60;;;;;;;;;;4956449;28;20182;-77
2021/12/08 01:04:13;;;;;;;3.37;2.00;;;;;;;;;;4937492;29;20185;-77
2021/12/08 01:06:38;;;;;;;1.90;1.80;;;;;;;;;;4933478;28;20229;-77
2021/12/08 01:09:03;;;;;;;2.90;2.50;;;;;;;;;;4935736;28;20204;-77
2021/12/08 01:11:29;;;;;;;2.27;2.07;;;;;;;;;;4931986;29;20189;-77
2021/12/08 01:13:54;;;;;;;5.70;2.40;;;;;;;;;;4938688;28;20232;-78
2021/12/08 01:16:20;;;;;;;2.40;2.20;;;;;;;;;;4935687;29;20177;-78
2021/12/08 01:18:45;;;;;;;4.47;2.47;;;;;;;;;;4952966;28;20212;-77
2021/12/08 01:21:11;;;;;;;2.63;2.43;;;;;;;;;;4938021;28;20256;-77
2021/12/08 01:23:37;;;;;;;3.53;2.50;;;;;;;;;;4954314;28;20277;-77
2021/12/08 01:26:03;;;;;;;3.97;2.50;;;;;;;;;;4940402;29;20173;-77
2021/12/08 01:28:28;;;;;;;3.17;2.17;;;;;;;;;;4937735;29;20217;-77
2021/12/08 01:30:55;;;;;;;2.87;2.43;;;;;;;;;;4937229;28;20292;-77
2021/12/08 01:33:23;;;;;;;3.00;2.70;;;;;;;;;;4936202;29;20185;-77
2021/12/08 01:35:48;;;;;;;4.20;2.70;;;;;;;;;;4954045;28;20203;-77
2021/12/08 01:38:14;;;;;;;3.33;2.50;;;;;;;;;;4955819;28;20449;-77
2021/12/08 01:40:39;;;;;;;3.80;2.90;;;;;;;;;;4933122;28;20189;-77
2021/12/08 01:43:12;;;;;;;3.40;3.07;;;;;;;;;;4936507;29;20228;-77
2021/12/08 01:45:57;;;;;;;3.83;3.03;;;;;;;;;;4936281;29;20253;-77
2021/12/08 01:48:22;;;;;;;5.13;3.93;;;;;;;;;;4929856;29;20216;-77
2021/12/08 01:50:52;;;;;;;4.80;3.13;;;;;;;;;;4935776;29;20181;-77
2021/12/08 01:53:18;;;;;;;5.03;3.90;;;;;;;;;;4937295;28;20188;-77
2021/12/08 01:55:44;;;;;;;3.53;3.10;;;;;;;;;;4936229;29;20174;-77
2021/12/08 01:58:09;;;;;;;6.80;3.83;;;;;;;;;;4930209;29;20193;-77
2021/12/08 02:00:43;;;;;;;5.53;3.70;;;;;;;;;;4936546;29;20502;-77
2021/12/08 02:03:09;;;;;;;7.10;3.50;;;;;;;;;;4950397;28;20181;-77
2021/12/08 02:05:34;;;;;;;4.57;4.00;;;;;;;;;;4932342;29;20181;-77
2021/12/08 02:07:59;;;;;;;3.60;3.30;;;;;;;;;;4932698;28;20212;-77
2021/12/08 02:10:25;;;;;;;6.77;4.90;;;;;;;;;;4932254;29;20232;-77
2021/12/08 02:12:50;;;;;;;6.77;4.73;;;;;;;;;;4950259;29;20185;-78
2021/12/08 02:15:16;;;;;;;4.67;4.03;;;;;;;;;;4950595;28;20178;-77
2021/12/08 02:17:43;;;;;;;4.87;4.30;;;;;;;;;;4931817;29;20200;-77
2021/12/08 02:20:10;;;;;;;4.57;4.10;;;;;;;;;;4950999;28;20192;-77
2021/12/08 02:22:35;;;;;;;8.93;5.00;;;;;;;;;;4936370;28;20205;-77
2021/12/08 02:25:00;;;;;;;5.70;4.93;;;;;;;;;;4957859;28;20274;-77
2021/12/08 02:27:26;;;;;;;7.30;5.47;;;;;;;;;;4953639;28;20207;-77
2021/12/08 02:29:58;;;;;;;5.77;5.00;;;;;;;;;;4945529;28;20185;-77
2021/12/08 02:48:30;;;;;;;6.73;5.23;;;;;;;;;;4955657;28;20244;-77
2021/12/08 02:50:56;;;;;;;8.43;6.33;;;;;;;;;;4932027;28;20251;-77
2021/12/08 02:53:21;;;;;;;6.70;5.20;;;;;;;;;;4940829;29;20174;-77
2021/12/08 02:55:47;;;;;;;8.67;6.27;;;;;;;;;;4943596;28;20177;-77
2021/12/08 02:58:12;;;;;;;5.83;5.17;;;;;;;;;;4928943;29;20189;-77
2021/12/08 03:00:42;;;;;;;7.50;5.50;;;;;;;;;;4928104;29;20221;-77
2021/12/08 03:03:07;;;;;;;9.73;5.87;;;;;;;;;;4935661;29;20272;-77
2021/12/08 03:05:33;;;;;;;12.00;6.23;;;;;;;;;;4939935;29;20281;-77
2021/12/08 03:07:58;;;;;;;9.93;6.50;;;;;;;;;;4937956;28;20267;-77
2021/12/08 03:10:25;;;;;;;10.87;8.03;;;;;;;;;;4948694;28;20177;-77
2021/12/08 03:12:51;;;;;;;10.13;6.87;;;;;;;;;;4943845;29;20212;-77
2021/12/08 03:15:16;;;;;;;8.40;6.53;;;;;;;;;;4934855;29;20213;-77
2021/12/08 03:17:42;;;;;;;10.43;7.20;;;;;;;;;;4927963;29;20216;-79
2021/12/08 03:20:11;;;;;;;10.77;6.90;;;;;;;;;;4934188;29;20197;-80
2021/12/08 03:22:41;;;;;;;8.03;6.53;;;;;;;;;;4937617;28;20185;-77
2021/12/08 03:25:09;;;;;;;8.80;7.00;;;;;;;;;;4942342;29;20182;-77
2021/12/08 03:27:39;;;;;;;11.70;7.30;;;;;;;;;;4941348;28;20205;-77
2021/12/08 03:30:16;;;;;;;9.90;7.77;;;;;;;;;;4936384;28;20180;-78
2021/12/08 03:32:41;;;;;;;12.33;7.50;;;;;;;;;;4938466;28;20296;-77
2021/12/08 03:35:08;;;;;;;9.80;7.57;;;;;;;;;;4942444;29;20273;-77
2021/12/08 03:37:35;;;;;;;10.50;6.83;;;;;;;;;;4940664;29;20186;-77
2021/12/08 03:40:03;;;;;;;10.90;7.20;;;;;;;;;;4933452;29;20181;-77
2021/12/08 03:42:29;;;;;;;11.27;7.47;;;;;;;;;;4936325;29;20244;-77
2021/12/08 03:44:56;;;;;;;9.80;7.37;;;;;;;;;;4952855;28;20189;-77
2021/12/08 03:47:27;;;;;;;10.40;7.73;;;;;;;;;;4935197;29;20197;-77
2021/12/08 03:49:53;;;;;;;9.97;7.67;;;;;;;;;;4953418;29;20173;-77
2021/12/08 03:52:18;;;;;;;10.33;8.00;;;;;;;;;;4937489;29;20174;-77
2021/12/08 03:54:44;;;;;;;11.00;8.20;;;;;;;;;;4963454;28;20185;-77
2021/12/08 03:57:09;;;;;;;13.60;8.10;;;;;;;;;;4937405;28;20434;-77
2021/12/08 03:59:35;;;;;;;13.00;8.37;;;;;;;;;;4953553;29;20186;-77
2021/12/08 04:02:00;;;;;;;10.90;7.77;;;;;;;;;;4953752;29;20174;-77
2021/12/08 04:04:28;;;;;;;11.63;8.40;;;;;;;;;;4939447;29;20181;-77
2021/12/08 04:06:54;;;;;;;13.07;7.63;;;;;;;;;;4938982;28;20241;-77
2021/12/08 04:09:32;;;;;;;10.10;7.40;;;;;;;;;;4940426;28;20212;-77
2021/12/08 04:11:57;;;;;;;12.63;9.77;;;;;;;;;;4950398;28;20177;-77
2021/12/08 04:14:24;;;;;;;11.63;8.03;;;;;;;;;;4933864;29;20192;-77
2021/12/08 04:16:53;;;;;;;10.87;8.10;;;;;;;;;;4942218;29;20181;-79
2021/12/08 04:19:19;;;;;;;15.17;9.10;;;;;;;;;;4950410;28;20184;-77
2021/12/08 04:21:45;;;;;;;12.57;7.47;;;;;;;;;;4959729;28;20276;-77
2021/12/08 04:24:11;;;;;;;12.93;8.33;;;;;;;;;;4959986;28;20204;-78
2021/12/08 04:26:44;;;;;;;13.40;9.13;;;;;;;;;;4931049;28;20182;-79
2021/12/08 04:29:10;;;;;;;13.60;9.57;;;;;;;;;;4932596;28;20212;-78
2021/12/08 04:31:36;;;;;;;11.00;7.97;;;;;;;;;;4933314;28;20178;-77
2021/12/08 04:34:04;;;;;;;10.97;7.63;;;;;;;;;;4940711;29;20253;-77
2021/12/08 04:36:38;;;;;;;14.63;9.47;;;;;;;;;;4941554;28;20187;-77
2021/12/08 04:39:06;;;;;;;15.70;8.60;;;;;;;;;;4940538;28;20197;-77
2021/12/08 04:41:39;;;;;;;14.57;9.57;;;;;;;;;;4954492;28;20205;-77
2021/12/08 04:44:21;;;;;;;14.37;9.80;;;;;;;;;;4930027;29;20233;-78
2021/12/08 04:52:15;;;;;;;12.57;8.17;;;;;;;;;;4934742;29;20181;-78
2021/12/08 05:05:36;;;;;;;14.10;8.33;;;;;;;;;;4938832;29;20238;-78
2021/12/08 05:08:12;;;;;;;10.87;7.00;;;;;;;;;;4950018;28;20210;-78
2021/12/08 05:10:38;;;;;;;11.70;7.87;;;;;;;;;;4937316;29;20232;-77
2021/12/08 05:13:05;;;;;;;13.20;7.73;;;;;;;;;;4934788;29;20209;-78
2021/12/08 05:15:52;;;;;;;10.30;6.20;;;;;;;;;;4943463;28;20207;-78
2021/12/08 05:18:23;;;;;;;12.17;6.50;;;;;;;;;;4926293;29;20178;-78
2021/12/08 05:20:51;;;;;;;9.00;5.60;;;;;;;;;;4934178;29;20194;-78
2021/12/08 05:23:28;;;;;;;9.47;6.10;;;;;;;;;;4933015;29;20182;-78
2021/12/08 05:25:53;;;;;;;12.80;6.10;;;;;;;;;;4937169;29;20268;-78
2021/12/08 05:28:21;;;;;;;8.67;5.33;;;;;;;;;;4934547;29;20292;-78
2021/12/08 05:31:00;;;;;;;10.43;6.13;;;;;;;;;;4930508;29;20182;-78
2021/12/08 05:33:25;;;;;;;7.87;5.57;;;;;;;;;;4930707;29;20190;-79
2021/12/08 05:35:51;;;;;;;8.93;5.57;;;;;;;;;;4930845;29;20186;-78
2021/12/08 05:38:17;;;;;;;7.57;5.00;;;;;;;;;;4937574;29;20274;-78
2021/12/08 05:40:53;;;;;;;12.27;8.23;;;;;;;;;;4924800;29;20183;-78
2021/12/08 05:43:19;;;;;;;10.07;7.40;;;;;;;;;;4930399;29;20317;-78
2021/12/08 05:45:45;;;;;;;8.23;5.43;;;;;;;;;;4932052;29;20277;-78
2021/12/08 05:48:11;;;;;;;6.90;5.40;;;;;;;;;;4931171;29;20198;-78
2021/12/08 05:50:39;;;;;;;9.53;6.43;;;;;;;;;;4935226;29;20205;-78
2021/12/08 05:53:05;;;;;;;8.53;6.60;;;;;;;;;;4931040;29;20206;-78
2021/12/08 05:55:31;;;;;;;8.53;6.30;;;;;;;;;;4936623;29;20555;-78
2021/12/08 05:57:57;;;;;;;12.07;6.63;;;;;;;;;;4934343;28;20197;-78
2021/12/08 06:00:46;;;;;;;8.30;5.97;;;;;;;;;;4935062;29;20265;-77
2021/12/08 06:03:11;;;;;;;10.40;6.50;;;;;;;;;;4930846;29;20198;-78
2021/12/08 06:05:37;;;;;;;10.30;7.47;;;;;;;;;;4931778;29;20193;-77
2021/12/08 06:08:02;;;;;;;11.30;7.67;;;;;;;;;;4941790;29;20194;-78
2021/12/08 06:10:32;;;;;;;10.23;6.13;;;;;;;;;;4928053;29;20185;-78
2021/12/08 06:12:58;;;;;;;9.33;6.20;;;;;;;;;;4937099;29;20202;-78
2021/12/08 06:15:23;;;;;;;8.03;6.17;;;;;;;;;;4927424;29;20182;-78
2021/12/08 06:17:48;;;;;;;8.00;5.87;;;;;;;;;;4937091;29;20181;-77
2021/12/08 06:20:14;;;;;;;8.20;5.77;;;;;;;;;;4932384;29;20198;-78
2021/12/08 06:22:40;;;;;;;9.83;7.00;;;;;;;;;;4928709;29;20248;-78
2021/12/08 06:25:06;;;;;;;8.57;5.97;;;;;;;;;;4941120;29;20192;-77
2021/12/08 06:27:31;;;;;;;8.13;5.97;;;;;;;;;;4937260;29;20272;-78
2021/12/08 06:29:57;;;;;;;8.00;5.27;;;;;;;;;;4926858;29;20318;-78
2021/12/08 06:32:22;;;;;;;11.77;6.57;;;;;;;;;;4932244;29;20185;-76
2021/12/08 06:34:51;;;;;;;7.40;5.03;;;;;;;;;;4940343;29;20170;-78
2021/12/08 06:37:20;;;;;;;10.97;6.47;;;;;;;;;;4928685;29;20839;-78
2021/12/08 06:39:49;;;;;;;8.60;5.37;;;;;;;;;;4939634;29;20299;-78
2021/12/08 06:42:17;;;;;;;10.77;5.83;;;;;;;;;;4928128;29;20207;-78
2021/12/08 06:44:44;;;;;;;8.77;6.33;;;;;;;;;;4927750;28;20188;-78
2021/12/08 06:47:12;;;;;;;8.93;5.83;;;;;;;;;;4935787;29;20278;-78
2021/12/08 06:49:38;;;;;;;8.33;5.93;;;;;;;;;;4935954;28;20226;-78
2021/12/08 06:52:08;;;;;;;8.73;6.50;;;;;;;;;;4930906;29;20174;-78
2021/12/08 06:54:54;;;;;;;9.27;5.97;;;;;;;;;;4925172;28;20182;-78
2021/12/08 06:57:23;;;;;;;9.87;6.47;;;;;;;;;;4915696;29;20192;-78
2021/12/08 07:00:04;;;;;;;11.03;8.47;;;;;;;;;;4932755;28;20238;-78
2021/12/08 07:02:49;;;;;;;7.93;5.80;;;;;;;;;;4929535;29;20253;-78
2021/12/08 07:05:31;;;;;;;8.53;6.03;;;;;;;;;;4932557;28;20178;-77
2021/12/08 07:08:06;;;;;;;8.90;6.50;;;;;;;;;;4948742;28;20186;-78
2021/12/08 07:10:35;;;;;;;7.17;5.47;;;;;;;;;;4938844;29;20192;-78
2021/12/08 07:13:06;;;;;;;9.07;5.87;;;;;;;;;;4933282;29;20236;-78
2021/12/08 07:15:46;;;;;;;16.63;9.67;;;;;;;;;;4932144;29;20181;-78
2021/12/08 07:18:13;;;;;;;22.53;11.80;;;;;;;;;;4934065;29;20276;-78
2021/12/08 07:23:07;;;;;;;16.23;8.50;;;;;;;;;;4952169;29;20192;-78
2021/12/08 07:25:33;;;;;;;17.63;12.23;;;;;;;;;;4939991;29;20193;-78
2021/12/08 07:27:59;;;;;;;19.97;16.40;;;;;;;;;;4951597;29;20268;-78
2021/12/08 07:30:33;;;;;;;16.87;11.10;;;;;;;;;;4961062;28;20181;-78
2021/12/08 07:32:59;;;;;;;15.27;9.70;;;;;;;;;;4945053;29;20248;-78
2021/12/08 07:35:26;;;;;;;8.13;6.23;;;;;;;;;;4927167;29;20276;-78
2021/12/08 07:37:52;;;;;;;7.87;5.80;;;;;;;;;;4943163;28;20276;-77
2021/12/08 07:40:20;;;;;;;12.27;9.97;;;;;;;;;;4941322;29;20317;-78
2021/12/08 07:42:52;;;;;;;8.57;7.27;;;;;;;;;;4940313;29;20249;-77
2021/12/08 07:45:19;;;;;;;11.03;6.70;;;;;;;;;;4935125;29;20182;-77
2021/12/08 07:47:46;;;;;;;10.10;6.57;;;;;;;;;;4934702;29;20242;-78
2021/12/08 07:50:15;;;;;;;9.57;6.17;;;;;;;;;;4933191;29;20193;-78
2021/12/08 07:52:42;;;;;;;10.60;7.37;;;;;;;;;;4933201;29;20182;-78
2021/12/08 07:55:10;;;;;;;14.87;9.37;;;;;;;;;;4937378;29;20181;-78
2021/12/08 07:57:35;;;;;;;25.17;15.47;;;;;;;;;;4937009;29;20186;-78
2021/12/08 08:00:05;;;;;;;18.33;11.00;;;;;;;;;;4935383;29;20182;-77
2021/12/08 08:02:31;;;;;;;11.77;8.17;;;;;;;;;;4931204;29;20187;-78
2021/12/08 08:04:57;;;;;;;11.60;9.23;;;;;;;;;;4939004;29;20213;-78
2021/12/08 08:07:23;;;;;;;10.27;5.87;;;;;;;;;;4940129;29;20189;-77
2021/12/08 08:09:53;;;;;;;10.20;6.70;;;;;;;;;;4931846;29;20178;-78
2021/12/08 08:12:21;;;;;;;10.77;7.10;;;;;;;;;;4934302;29;20200;-78
2021/12/08 08:14:52;;;;;;;20.43;12.10;;;;;;;;;;4938716;29;20189;-78
2021/12/08 08:17:19;;;;;;;16.27;6.43;;;;;;;;;;4940428;29;20189;-78
2021/12/08 08:19:45;;;;;;;13.70;6.80;;;;;;;;;;4935381;29;20178;-77
2021/12/08 08:22:14;;;;;;;11.63;7.57;;;;;;;;;;4938150;29;20190;-78
2021/12/08 08:24:39;;;;;;;12.47;6.90;;;;;;;;;;4933145;29;20221;-78
2021/12/08 08:27:06;;;;;;;12.87;8.10;;;;;;;;;;4936075;29;20217;-77
2021/12/08 08:29:31;;;;;;;10.57;7.00;;;;;;;;;;4934419;29;20209;-78
2021/12/08 08:32:08;;;;;;;12.50;7.70;;;;;;;;;;4936666;29;20193;-77
2021/12/08 08:34:36;;;;;;;12.97;6.60;;;;;;;;;;4936824;29;20268;-78
2021/12/08 08:37:03;;;;;;;16.57;8.00;;;;;;;;;;4931371;29;20178;-78
2021/12/08 08:39:30;;;;;;;24.03;10.97;;;;;;;;;;4943411;29;20205;-78
2021/12/08 08:42:01;;;;;;;14.47;9.03;;;;;;;;;;4932649;29;20209;-77
2021/12/08 08:44:35;;;;;;;13.67;7.83;;;;;;;;;;4930870;29;20234;-78
2021/12/08 08:47:05;;;;;;;15.27;8.00;;;;;;;;;;4936051;29;20277;-78
2021/12/08 08:49:32;;;;;;;12.30;7.03;;;;;;;;;;4939207;28;20213;-78
2021/12/08 08:52:07;;;;;;;9.37;6.40;;;;;;;;;;4936213;29;20181;-77
2021/12/08 08:54:36;;;;;;;9.43;6.60;;;;;;;;;;4929724;29;20197;-77
2021/12/08 08:57:12;;;;;;;12.30;7.00;;;;;;;;;;4920620;29;20205;-78
2021/12/08 08:59:43;;;;;;;11.40;6.50;;;;;;;;;;4933932;29;20198;-78
2021/12/08 09:02:12;;;;;;;12.40;6.30;;;;;;;;;;4937990;29;20189;-78
2021/12/08 09:04:39;;;;;;;9.70;5.50;;;;;;;;;;4940981;29;20193;-77
2021/12/08 09:07:06;;;;;;;8.87;5.37;;;;;;;;;;4944615;28;20209;-78
2021/12/08 09:09:34;;;;;;;9.37;6.00;;;;;;;;;;4935449;29;20214;-78
2021/12/08 09:12:05;;;;;;;12.93;6.33;;;;;;;;;;4936371;29;20174;-77
2021/12/08 09:14:37;;;;;;;10.87;5.97;;;;;;;;;;4930739;29;20221;-78
2021/12/08 09:17:08;;;;;;;8.53;5.47;;;;;;;;;;4935351;29;20170;-77
2021/12/08 09:19:40;;;;;;;11.27;6.27;;;;;;;;;;4932254;29;20186;-77
2021/12/08 09:22:18;;;;;;;10.00;6.67;;;;;;;;;;4922789;29;20192;-77
2021/12/08 09:24:58;;;;;;;8.60;4.90;;;;;;;;;;4931285;29;20182;-77
2021/12/08 09:27:35;;;;;;;15.10;6.43;;;;;;;;;;4928143;29;20190;-77
2021/12/08 09:30:33;;;;;;;13.00;5.13;;;;;;;;;;4928572;29;20217;-78
2021/12/08 09:33:01;;;;;;;22.80;9.87;;;;;;;;;;4916175;29;20185;-77
2021/12/08 09:35:26;;;;;;;9.43;5.60;;;;;;;;;;4940153;29;20186;-78
2021/12/08 09:37:55;;;;;;;11.33;5.83;;;;;;;;;;4931746;29;20221;-78
2021/12/08 09:40:33;;;;;;;11.27;5.53;;;;;;;;;;4928679;29;20221;-77
2021/12/08 09:43:05;;;;;;;8.70;5.30;;;;;;;;;;4931263;29;20225;-77
2021/12/08 09:45:34;;;;;;;33.63;14.37;;;;;;;;;;4941021;28;20186;-77
2021/12/08 09:48:01;;;;;;;9.17;5.10;;;;;;;;;;4936791;29;20206;-77
2021/12/08 09:50:34;;;;;;;12.10;5.93;;;;;;;;;;4934099;29;20181;-77
2021/12/08 09:53:00;;;;;;;13.83;8.20;;;;;;;;;;4937232;29;20174;-77
2021/12/08 09:55:25;;;;;;;10.13;5.97;;;;;;;;;;4938026;29;20174;-77
2021/12/08 09:57:50;;;;;;;10.20;6.67;;;;;;;;;;4933503;29;20210;-77
2021/12/08 10:00:30;;;;;;;15.40;7.43;;;;;;;;;;4933282;29;20182;-77
2021/12/08 10:03:00;;;;;;;9.83;5.53;;;;;;;;;;4933617;29;20261;-77
2021/12/08 10:05:30;;;;;;;16.67;9.03;;;;;;;;;;4928179;29;20270;-77
2021/12/08 10:07:55;;;;;;;9.83;5.90;;;;;;;;;;4938260;29;20232;-77
2021/12/08 10:10:20;;;;;;;13.47;7.00;;;;;;;;;;4938984;29;20211;-77
2021/12/08 10:12:45;;;;;;;12.57;7.03;;;;;;;;;;4931274;29;20181;-77
2021/12/08 10:15:13;;;;;;;9.93;6.07;;;;;;;;;;4930350;29;20188;-77
2021/12/08 10:17:38;;;;;;;12.10;7.70;;;;;;;;;;4937442;29;20237;-78
2021/12/08 10:20:07;;;;;;;16.60;7.97;;;;;;;;;;4934554;29;20167;-78
2021/12/08 10:22:32;;;;;;;13.60;9.00;;;;;;;;;;4940289;29;20214;-78
2021/12/08 10:25:19;;;;;;;11.17;5.53;;;;;;;;;;4929094;29;20204;-78
2021/12/08 10:28:02;;;;;;;12.47;6.87;;;;;;;;;;4938712;29;20178;-77
2021/12/08 10:30:28;;;;;;;14.37;9.80;;;;;;;;;;4922477;29;20176;-78
2021/12/08 10:32:54;;;;;;;15.43;9.73;;;;;;;;;;4935100;28;20261;-77
2021/12/08 10:35:41;;;;;;;10.57;6.53;;;;;;;;;;4939710;28;20262;-78
2021/12/08 10:38:06;;;;;;;9.67;5.37;;;;;;;;;;4926080;29;20189;-77
2021/12/08 10:40:31;;;;;;;10.83;6.37;;;;;;;;;;4930613;29;20189;-78
2021/12/08 10:42:56;;;;;;;11.10;6.70;;;;;;;;;;4933024;29;20260;-78
2021/12/08 10:45:26;;;;;;;17.53;10.53;;;;;;;;;;4926316;29;20214;-79
2021/12/08 10:47:54;;;;;;;15.27;6.70;;;;;;;;;;4927633;29;20230;-78
2021/12/08 10:56:04;;;;;;;62.10;30.87;;;;;;;;;;4929908;29;20264;-78
2021/12/08 10:58:31;;;;;;;51.60;29.43;;;;;;;;;;4933335;29;20180;-78
2021/12/08 11:00:57;;;;;;;20.20;12.03;;;;;;;;;;4939320;29;20181;-79
2021/12/08 11:03:23;;;;;;;14.20;9.20;;;;;;;;;;4931954;29;20241;-79
2021/12/08 11:06:01;;;;;;;10.90;7.40;;;;;;;;;;4926971;29;20182;-79
2021/12/08 11:08:26;;;;;;;10.27;5.57;;;;;;;;;;4941965;29;20227;-78
2021/12/08 11:10:51;;;;;;;13.97;8.53;;;;;;;;;;4932709;29;20190;-78
2021/12/08 11:13:19;;;;;;;19.80;13.17;;;;;;;;;;4931770;29;20210;-79
2021/12/08 11:15:45;;;;;;;9.33;5.73;;;;;;;;;;4930060;29;20190;-79
2021/12/08 11:18:15;;;;;;;10.57;6.90;;;;;;;;;;4933443;29;20170;-78
2021/12/08 11:20:45;;;;;;;9.50;5.77;;;;;;;;;;4931945;29;20205;-79
2021/12/08 11:23:14;;;;;;;10.63;6.57;;;;;;;;;;4931016;29;20201;-78
2021/12/08 11:25:44;;;;;;;13.70;6.43;;;;;;;;;;4933294;29;20178;-78
2021/12/08 11:28:29;;;;;;;44.97;16.37;;;;;;;;;;4926049;29;20201;-79
2021/12/08 11:31:02;;;;;;;38.23;17.33;;;;;;;;;;4928332;29;20202;-78
2021/12/08 11:33:27;;;;;;;12.70;7.77;;;;;;;;;;4935359;29;20182;-78
2021/12/08 11:36:07;;;;;;;9.90;5.53;;;;;;;;;;4935554;29;20206;-78
2021/12/08 11:38:32;;;;;;;10.20;5.73;;;;;;;;;;4935079;29;20248;-78
2021/12/08 11:40:58;;;;;;;10.50;5.43;;;;;;;;;;4929583;29;20198;-79
2021/12/08 11:43:30;;;;;;;4.57;3.50;;;;;;;;;;4932446;29;20240;-78
2021/12/08 11:46:10;;;;;;;6.10;3.77;;;;;;;;;;4928336;29;20297;-78
2021/12/08 11:48:47;;;;;;;10.90;4.23;;;;;;;;;;4931315;29;20198;-79
2021/12/08 11:51:13;;;;;;;5.60;2.60;;;;;;;;;;4935686;29;20260;-78
2021/12/08 11:53:38;;;;;;;5.77;3.47;;;;;;;;;;4925280;29;20274;-77
2021/12/08 11:56:04;;;;;;;6.43;3.47;;;;;;;;;;4934362;29;20181;-79
2021/12/08 11:58:29;;;;;;;11.40;6.83;;;;;;;;;;4939401;29;20294;-79
2021/12/08 12:00:55;;;;;;;40.47;17.10;;;;;;;;;;4939430;29;20214;-78
2021/12/08 12:03:20;;;;;;;14.90;8.40;;;;;;;;;;4930454;29;20182;-78
2021/12/08 12:05:48;;;;;;;13.33;8.43;;;;;;;;;;4936102;29;20206;-78
2021/12/08 12:08:18;;;;;;;10.33;6.10;;;;;;;;;;4936033;29;20194;-78
2021/12/08 12:10:48;;;;;;;62.27;27.57;;;;;;;;;;4941004;29;20182;-78
2021/12/08 12:13:13;;;;;;;32.20;13.40;;;;;;;;;;4934833;29;20234;-78
2021/12/08 12:15:44;;;;;;;20.67;9.27;;;;;;;;;;4929466;29;20221;-78
2021/12/08 12:18:10;;;;;;;6.63;4.83;;;;;;;;;;4928092;29;20189;-78
2021/12/08 12:20:38;;;;;;;15.30;9.93;;;;;;;;;;4932356;29;20174;-78
2021/12/08 12:23:22;;;;;;;10.37;7.87;;;;;;;;;;4932535;29;20265;-78
2021/12/08 12:26:07;;;;;;;15.33;8.10;;;;;;;;;;4934380;29;20197;-78
2021/12/08 12:28:32;;;;;;;5.73;3.80;;;;;;;;;;4936356;29;20249;-78
2021/12/08 12:31:05;;;;;;;21.00;13.33;;;;;;;;;;4937707;29;20229;-78
2021/12/08 12:33:38;;;;;;;8.10;3.73;;;;;;;;;;4934657;29;20174;-78
2021/12/08 12:36:03;;;;;;;4.20;3.80;;;;;;;;;;4946233;28;20182;-77
2021/12/08 12:38:36;;;;;;;5.60;2.90;;;;;;;;;;4930571;29;20244;-78
2021/12/08 12:41:03;;;;;;;2.87;2.20;;;;;;;;;;4925421;29;20313;-78
2021/12/08 12:43:33;;;;;;;5.10;2.70;;;;;;;;;;4935443;29;20233;-77
2021/12/08 12:46:02;;;;;;;5.30;2.40;;;;;;;;;;4934102;29;20281;-78
2021/12/08 12:48:29;;;;;;;2.83;2.13;;;;;;;;;;4933553;29;20217;-78
2021/12/08 12:50:56;;;;;;;4.33;2.07;;;;;;;;;;4933973;29;20270;-77
2021/12/08 12:53:32;;;;;;;6.40;2.07;;;;;;;;;;4939586;29;20218;-78
2021/12/08 12:55:58;;;;;;;6.23;3.93;;;;;;;;;;4933298;29;20181;-78
2021/12/08 12:58:23;;;;;;;5.80;3.37;;;;;;;;;;4936976;29;20188;-78
2021/12/08 13:01:04;;;;;;;6.63;5.40;;;;;;;;;;4935431;29;20186;-78
2021/12/08 13:03:34;;;;;;;8.50;2.53;;;;;;;;;;4937146;29;20186;-78
2021/12/08 13:05:59;;;;;;;4.70;1.20;;;;;;;;;;4934603;29;20256;-78
2021/12/08 13:08:30;;;;;;;11.23;3.70;;;;;;;;;;4930910;29;20353;-77
2021/12/08 13:10:56;;;;;;;6.67;2.43;;;;;;;;;;4933872;29;20209;-78
2021/12/08 13:13:21;;;;;;;6.43;2.67;;;;;;;;;;4934832;29;20465;-78
2021/12/08 13:15:47;;;;;;;9.50;3.63;;;;;;;;;;4933518;29;20178;-77
2021/12/08 13:18:13;;;;;;;11.53;3.23;;;;;;;;;;4934172;29;20200;-78
2021/12/08 13:20:56;;;;;;;2.93;2.50;;;;;;;;;;4936087;29;20200;-77
2021/12/08 13:23:23;;;;;;;10.33;1.90;;;;;;;;;;4935381;29;20178;-77
2021/12/08 13:28:54;;;;;;;7.00;1.63;;;;;;;;;;4929763;29;20201;-77
2021/12/08 13:31:26;;;;;;;3.17;1.80;;;;;;;;;;4932059;29;20179;-78
2021/12/08 13:33:51;;;;;;;4.30;2.00;;;;;;;;;;4933200;29;20221;-78
2021/12/08 13:36:19;;;;;;;4.57;2.20;;;;;;;;;;4939402;29;20214;-77
2021/12/08 13:38:45;;;;;;;7.87;3.30;;;;;;;;;;4938044;29;20194;-77
2021/12/08 13:41:15;;;;;;;5.07;2.50;;;;;;;;;;4931824;29;20198;-77
2021/12/08 13:43:42;;;;;;;5.17;2.13;;;;;;;;;;4930883;29;20230;-78
2021/12/08 13:46:10;;;;;;;9.73;3.83;;;;;;;;;;4935375;29;20297;-78
2021/12/08 13:48:36;;;;;;;9.87;4.53;;;;;;;;;;4933479;29;20224;-78
2021/12/08 13:51:18;;;;;;;9.33;3.10;;;;;;;;;;4940778;29;20182;-77
2021/12/08 13:53:43;;;;;;;4.47;3.07;;;;;;;;;;4934150;29;20187;-77
2021/12/08 13:56:09;;;;;;;5.97;4.10;;;;;;;;;;4937738;29;20185;-77
2021/12/08 13:58:36;;;;;;;10.73;3.57;;;;;;;;;;4929663;29;20174;-78
2021/12/08 14:01:02;;;;;;;6.13;2.20;;;;;;;;;;4934849;29;20259;-77
2021/12/08 14:03:35;;;;;;;8.77;3.53;;;;;;;;;;4936653;29;20569;-77
2021/12/08 14:06:01;;;;;;;7.57;3.33;;;;;;;;;;4931065;29;20212;-77
2021/12/08 14:08:29;;;;;;;8.00;1.97;;;;;;;;;;4944445;29;20212;-77
2021/12/08 14:11:00;;;;;;;6.17;2.80;;;;;;;;;;4931230;29;20274;-77
2021/12/08 14:13:27;;;;;;;6.17;2.67;;;;;;;;;;4936265;29;20175;-77
2021/12/08 14:15:57;;;;;;;6.50;3.83;;;;;;;;;;4932921;29;20484;-77
2021/12/08 14:18:24;;;;;;;6.27;2.83;;;;;;;;;;4931512;29;20401;-77
2021/12/08 14:20:58;;;;;;;5.77;3.10;;;;;;;;;;4930523;29;20190;-77
2021/12/08 14:23:25;;;;;;;6.80;2.30;;;;;;;;;;4932539;29;20185;-77
2021/12/08 14:25:55;;;;;;;4.80;2.50;;;;;;;;;;4935953;29;20179;-77
2021/12/08 14:28:39;;;;;;;5.33;2.20;;;;;;;;;;4933907;29;20217;-77
2021/12/08 14:31:09;;;;;;;6.40;5.27;;;;;;;;;;4919607;29;20178;-77
2021/12/08 14:33:34;;;;;;;4.10;2.30;;;;;;;;;;4936623;29;20188;-78
2021/12/08 14:36:02;;;;;;;5.60;2.00;;;;;;;;;;4927825;29;20233;-77
2021/12/08 14:38:27;;;;;;;4.93;2.30;;;;;;;;;;4936279;29;20434;-77
2021/12/08 14:40:54;;;;;;;3.20;1.90;;;;;;;;;;4930443;29;20198;-77
2021/12/08 14:43:39;;;;;;;5.17;2.17;;;;;;;;;;4923411;29;20232;-77
2021/12/08 14:46:08;;;;;;;5.10;2.03;;;;;;;;;;4926962;29;20189;-78
2021/12/08 14:48:33;;;;;;;4.20;2.33;;;;;;;;;;4925283;29;20222;-78
2021/12/08 14:50:58;;;;;;;4.03;2.03;;;;;;;;;;4935428;29;20182;-77
2021/12/08 14:53:23;;;;;;;4.10;2.07;;;;;;;;;;4929626;29;20205;-78
2021/12/08 14:55:48;;;;;;;6.40;2.37;;;;;;;;;;4928018;29;20179;-77
2021/12/08 14:58:14;;;;;;;3.20;2.43;;;;;;;;;;4937287;29;20235;-77
2021/12/08 15:00:40;;;;;;;3.97;2.67;;;;;;;;;;4931162;29;20425;-78
2021/12/08 15:03:11;;;;;;;5.07;2.40;;;;;;;;;;4932064;29;20185;-77
2021/12/08 15:05:37;;;;;;;5.90;2.60;;;;;;;;;;4927970;29;20191;-77
2021/12/08 15:08:07;;;;;;;3.87;2.33;;;;;;;;;;4936921;29;20193;-77
2021/12/08 15:10:32;;;;;;;5.13;2.77;;;;;;;;;;4922545;29;20190;-78
2021/12/08 15:13:08;;;;;;;6.30;2.70;;;;;;;;;;4929483;29;20184;-77
2021/12/08 15:15:34;;;;;;;3.30;2.70;;;;;;;;;;4926119;29;20186;-77
2021/12/08 15:18:01;;;;;;;7.13;2.97;;;;;;;;;;4933908;28;20240;-77
2021/12/08 15:20:36;;;;;;;5.80;3.00;;;;;;;;;;4931508;29;20193;-77
2021/12/08 15:23:03;;;;;;;4.13;2.80;;;;;;;;;;4937621;29;20193;-78
2021/12/08 15:25:29;;;;;;;5.73;3.60;;;;;;;;;;4938293;29;20192;-77
2021/12/08 15:27:55;;;;;;;5.10;3.57;;;;;;;;;;4934668;29;20196;-77
2021/12/08 15:30:43;;;;;;;5.47;3.27;;;;;;;;;;4936498;29;20182;-78